Curtis, NE (69025)

4:32 AM CST on December 26, 2014 (GMT -0600)
McCook Municipal | Change Station
CLOSE
Current Station
Airport
Location: McCook,
Elevation: 2579 ft
Nearby Weather Stations
Active Advisory: Winter Weather Advisory

Elev 2579 ft 40.20 °N, 100.59 °W | Updated 10 minutes ago

Overcast
Overcast
27 °F
Feels Like 14 °F
N
18
Wind Variable Wind from North

Today
High -- | Low -- °F
--% Chance of Precip.
Yesterday
High -- | Low -- °F
Precip. -- in
8:04 AM 5:21 PM
Waxing Crescent, 24% visible
Pressure 29.93 in
Visibility 10.0 miles
Clouds Mostly Cloudy 1600 ft
Overcast 3100 ft
Windchill 14 °F
Dew Point 21 °F
Humidity 78%
Rainfall 0.00 in
Snow Depth Not available.
UV 0 out of 12
Pollen .10 out of 12
Air Quality Not available.
Flu Activity Not available.
SPECI KMCK 261022Z AUTO 01016KT 10SM BKN016 OVC031 M03/M06 A2993 RMK AO2 PK WND 02026/1009 T10281061

More Conditions Fewer Conditions

Pressure 29.93 in
Visibility 10.0 miles
Clouds Mostly Cloudy 1600 ft
Overcast 3100 ft
Windchill 14 °F
Dew Point 21 °F
Humidity 78%
Rainfall 0.00 in
Snow Depth Not available.
UV 0 out of 12
Pollen .10 out of 12
Air Quality Not available.
Flu Activity Not available.
SPECI KMCK 261022Z AUTO 01016KT 10SM BKN016 OVC031 M03/M06 A2993 RMK AO2 PK WND 02026/1009 T10281061

More Conditions Fewer Conditions

10-Day Weather Forecast

Almanac

Astronomy

Dec. 26, 2014 Rise Set
Actual Time
Civil Twilight
Nautical Twilight
Astronomical Twilight
Moon
Length of Visible Light
Length of Day
Tomorrow will be .
, % of the Moon is Illuminated

Today's Extremes

State Highs State Lows

Community

WunderPhotos

Upload Photos

1,780,573 photos uploaded!

WunderBlogs® & News

Nearby

Air Quality

  Air Quality AQ Index Pollutant
Not available.

Snow Depth

Station Depth Elevation

Earthquake Activity

City Distance Mag. Time & Date
Minimum magnitude displayed is 2.5.

Coastal Water Temperatures

Place Temperature

Nearby Weather Stations